createdAt,value
2018-12-13T00:01:34.726Z,101266.59
2018-12-13T00:03:09.672Z,101274.06
2018-12-13T00:04:44.610Z,101274.66
2018-12-13T00:06:19.569Z,101267.80
2018-12-13T00:07:54.451Z,101266.81
2018-12-13T00:09:29.389Z,101268.41
2018-12-13T00:11:04.309Z,101261.08
2018-12-13T00:12:39.240Z,101263.34
2018-12-13T00:14:14.211Z,101262.34
2018-12-13T00:15:49.207Z,101266.95
2018-12-13T00:17:24.136Z,101260.46
2018-12-13T00:18:59.091Z,101265.27
2018-12-13T00:20:34.095Z,101262.82
2018-12-13T00:22:09.018Z,101260.66
2018-12-13T00:23:43.986Z,101259.67
2018-12-13T00:25:18.887Z,101253.16
2018-12-13T00:26:53.851Z,101257.88
2018-12-13T00:28:28.761Z,101263.77
2018-12-13T00:30:03.671Z,101253.16
2018-12-13T00:31:38.885Z,101261.64
2018-12-13T00:33:13.811Z,101263.52
2018-12-13T00:34:48.763Z,101259.69
2018-12-13T00:36:23.683Z,101259.05
2018-12-13T00:37:58.810Z,101257.03
2018-12-13T00:39:33.739Z,101255.39
2018-12-13T00:41:08.632Z,101257.44
2018-12-13T00:42:43.551Z,101258.94
2018-12-13T00:44:18.477Z,101259.70
2018-12-13T00:45:53.379Z,101256.34
2018-12-13T00:47:28.303Z,101258.88
2018-12-13T00:49:03.215Z,101265.47
2018-12-13T00:50:38.254Z,101272.55
2018-12-13T00:52:19.300Z,101268.02
2018-12-13T00:53:54.178Z,101265.09
2018-12-13T00:55:29.078Z,101260.70
2018-12-13T00:57:04.016Z,101266.78
2018-12-13T00:58:39.027Z,101276.41
2018-12-13T01:00:14.102Z,101268.73
2018-12-13T01:01:49.066Z,101271.01
2018-12-13T01:03:24.007Z,101272.08
2018-12-13T01:04:59.019Z,101266.31
2018-12-13T01:06:33.990Z,101264.12
2018-12-13T01:08:09.116Z,101272.19
2018-12-13T01:09:44.001Z,101264.06
2018-12-13T01:11:18.967Z,101274.64
2018-12-13T01:12:53.915Z,101272.85
2018-12-13T01:14:28.839Z,101270.44
2018-12-13T01:16:03.863Z,101271.22
2018-12-13T01:17:39.109Z,101270.09
2018-12-13T01:19:14.020Z,101277.80
2018-12-13T01:20:48.941Z,101276.52
2018-12-13T01:22:23.928Z,101273.70
2018-12-13T01:23:58.885Z,101276.28
2018-12-13T01:25:33.821Z,101265.98
2018-12-13T01:27:08.766Z,101274.59
2018-12-13T01:28:43.793Z,101271.75
2018-12-13T01:30:18.741Z,101268.25
2018-12-13T01:31:54.331Z,101268.63
2018-12-13T01:33:29.279Z,101266.97
2018-12-13T01:35:10.887Z,101261.36
2018-12-13T01:36:45.775Z,101264.78
2018-12-13T01:38:20.706Z,101263.10
2018-12-13T01:39:55.670Z,101258.57
2018-12-13T01:41:30.570Z,101258.91
2018-12-13T01:43:05.468Z,101253.42
2018-12-13T01:44:40.394Z,101252.27
2018-12-13T01:46:15.614Z,101247.92
2018-12-13T01:47:50.612Z,101251.92
2018-12-13T01:49:25.544Z,101249.05
2018-12-13T01:51:00.431Z,101246.53
2018-12-13T01:52:35.431Z,101254.09
2018-12-13T01:54:10.330Z,101250.78
2018-12-13T01:55:45.275Z,101251.86
2018-12-13T01:57:20.154Z,101251.21
2018-12-13T01:58:55.137Z,101246.27
2018-12-13T02:00:30.073Z,101238.80
2018-12-13T02:02:05.030Z,101239.84
2018-12-13T02:03:39.953Z,101242.45
2018-12-13T02:05:14.931Z,101243.69
2018-12-13T02:06:49.843Z,101247.37
2018-12-13T02:08:24.983Z,101244.84
2018-12-13T02:09:59.972Z,101240.28
2018-12-13T02:11:34.934Z,101246.41
2018-12-13T02:13:09.863Z,101241.61
2018-12-13T02:14:44.853Z,101235.23
2018-12-13T02:16:19.817Z,101237.94
2018-12-13T02:17:54.722Z,101242.75
2018-12-13T02:19:29.627Z,101238.48
2018-12-13T02:21:04.952Z,101241.08
2018-12-13T02:22:39.887Z,101241.64
2018-12-13T02:24:14.928Z,101239.68
2018-12-13T02:25:49.888Z,101247.66
2018-12-13T02:27:24.839Z,101241.50
2018-12-13T02:28:59.819Z,101238.62
2018-12-13T02:30:34.800Z,101236.00
2018-12-13T02:32:09.879Z,101236.39
2018-12-13T02:33:44.884Z,101234.43
2018-12-13T02:35:25.995Z,101236.00
2018-12-13T02:37:06.001Z,101230.70
2018-12-13T02:38:37.893Z,101233.80
2018-12-13T02:40:12.818Z,101236.85
2018-12-13T02:41:47.767Z,101242.36
2018-12-13T02:43:22.751Z,101231.15
2018-12-13T02:44:57.730Z,101233.11
2018-12-13T02:46:32.718Z,101234.18
2018-12-13T02:48:07.699Z,101232.91
2018-12-13T02:49:42.928Z,101240.68
2018-12-13T02:51:17.963Z,101234.88
2018-12-13T02:52:52.836Z,101233.67
2018-12-13T02:54:27.739Z,101227.04
2018-12-13T02:56:02.689Z,101226.58
2018-12-13T02:57:37.605Z,101234.66
2018-12-13T02:59:12.583Z,101228.16
2018-12-13T03:00:47.525Z,101231.27
2018-12-13T03:02:22.451Z,101225.09
2018-12-13T03:03:57.577Z,101228.51
2018-12-13T03:05:32.514Z,101225.31
2018-12-13T03:07:13.670Z,101224.56
2018-12-13T03:08:44.441Z,101225.99
2018-12-13T03:10:19.830Z,101229.23
2018-12-13T03:11:54.739Z,101227.58
2018-12-13T03:13:29.649Z,101222.89
2018-12-13T03:15:04.895Z,101221.30
2018-12-13T03:16:40.284Z,101220.16
2018-12-13T03:18:15.222Z,101215.49
2018-12-13T03:19:50.152Z,101212.91
2018-12-13T03:21:25.122Z,101215.37
2018-12-13T03:23:00.163Z,101215.66
2018-12-13T03:24:35.118Z,101215.88
2018-12-13T03:26:10.047Z,101208.34
2018-12-13T03:27:45.041Z,101205.50
2018-12-13T03:29:19.979Z,101208.83
2018-12-13T03:30:54.861Z,101196.51
2018-12-13T03:32:29.872Z,101201.45
2018-12-13T03:34:04.926Z,101202.25
2018-12-13T03:35:39.816Z,101198.25
2018-12-13T03:37:20.622Z,101198.73
2018-12-13T03:38:51.735Z,101194.14
2018-12-13T03:40:26.624Z,101196.35
2018-12-13T03:42:01.613Z,101193.46
2018-12-13T03:43:36.538Z,101194.16
2018-12-13T03:45:11.817Z,101199.64
2018-12-13T03:46:46.759Z,101193.81
2018-12-13T03:48:21.675Z,101190.05
2018-12-13T03:49:56.604Z,101190.00
2018-12-13T03:51:31.584Z,101191.60
2018-12-13T03:53:06.555Z,101187.49
2018-12-13T03:54:41.489Z,101187.66
2018-12-13T03:56:16.844Z,101185.54
2018-12-13T03:57:51.910Z,101185.48
2018-12-13T03:59:26.845Z,101179.41
2018-12-13T04:01:01.750Z,101185.37
2018-12-13T04:02:36.796Z,101187.05
2018-12-13T04:04:11.736Z,101181.78
2018-12-13T04:05:46.658Z,101178.47
2018-12-13T04:07:28.233Z,101178.04
2018-12-13T04:09:03.535Z,101179.10
2018-12-13T04:10:41.423Z,101182.47
2018-12-13T04:12:16.361Z,101187.36
2018-12-13T04:13:51.300Z,101184.38
2018-12-13T04:15:26.267Z,101184.26
2018-12-13T04:17:01.246Z,101183.08
2018-12-13T04:18:36.165Z,101189.09
2018-12-13T04:20:11.112Z,101180.99
2018-12-13T04:21:46.040Z,101187.72
2018-12-13T04:23:21.072Z,101188.47
2018-12-13T04:24:55.969Z,101192.35
2018-12-13T04:26:30.860Z,101192.97
2018-12-13T04:28:05.828Z,101193.13
2018-12-13T04:29:40.813Z,101191.06
2018-12-13T04:31:15.730Z,101188.81
2018-12-13T04:32:50.691Z,101183.27
2018-12-13T04:34:25.614Z,101177.67
2018-12-13T04:36:00.582Z,101175.55
2018-12-13T04:37:35.520Z,101175.98
2018-12-13T04:39:10.812Z,101173.45
2018-12-13T04:40:45.694Z,101169.36
2018-12-13T04:42:20.627Z,101173.78
2018-12-13T04:43:55.570Z,101172.59
2018-12-13T04:45:30.543Z,101173.73
2018-12-13T04:47:05.720Z,101167.80
2018-12-13T04:48:40.662Z,101167.41
2018-12-13T04:50:16.009Z,101176.52
2018-12-13T04:51:50.956Z,101173.79
2018-12-13T04:53:25.879Z,101181.14
2018-12-13T04:55:00.815Z,101180.72
2018-12-13T04:56:35.791Z,101177.29
2018-12-13T04:58:10.731Z,101177.95
2018-12-13T04:59:45.611Z,101179.84
2018-12-13T05:01:20.535Z,101172.58
2018-12-13T05:02:55.524Z,101179.46
2018-12-13T05:04:30.419Z,101181.32
2018-12-13T05:06:05.379Z,101176.73
2018-12-13T05:07:41.807Z,101177.22
2018-12-13T05:09:17.016Z,101177.09
2018-12-13T05:10:54.293Z,101177.83
2018-12-13T05:12:29.330Z,101174.36
2018-12-13T05:14:04.337Z,101176.50
2018-12-13T05:15:39.380Z,101168.45
2018-12-13T05:17:14.381Z,101174.17
2018-12-13T05:18:49.559Z,101176.06
2018-12-13T05:20:24.464Z,101169.86
2018-12-13T05:21:59.447Z,101171.55
2018-12-13T05:23:34.324Z,101175.66
2018-12-13T05:25:09.268Z,101174.97
2018-12-13T05:26:44.507Z,101172.34
2018-12-13T05:28:19.511Z,101170.14
2018-12-13T05:29:54.452Z,101175.31
2018-12-13T05:31:29.528Z,101172.25
2018-12-13T05:33:04.502Z,101165.53
2018-12-13T05:34:39.456Z,101168.54
2018-12-13T05:36:14.366Z,101167.81
2018-12-13T05:37:49.273Z,101169.77
2018-12-13T05:39:24.178Z,101172.93
2018-12-13T05:40:59.187Z,101169.32
2018-12-13T05:42:34.117Z,101160.19
2018-12-13T05:44:09.091Z,101167.77
2018-12-13T05:45:43.984Z,101165.59
2018-12-13T05:47:18.915Z,101163.68
2018-12-13T05:48:54.610Z,101164.05
2018-12-13T05:50:29.834Z,101164.06
2018-12-13T05:52:04.759Z,101168.27
2018-12-13T05:53:39.752Z,101166.02
2018-12-13T05:55:14.831Z,101161.95
2018-12-13T05:56:49.766Z,101164.02
2018-12-13T05:58:27.734Z,101160.94
2018-12-13T06:00:02.684Z,101163.97
2018-12-13T06:01:37.609Z,101159.78
2018-12-13T06:03:12.561Z,101167.67
2018-12-13T06:04:47.538Z,101168.69
2018-12-13T06:06:22.428Z,101162.06
2018-12-13T06:07:57.375Z,101166.29
2018-12-13T06:09:32.299Z,101165.66
2018-12-13T06:11:07.388Z,101165.66
2018-12-13T06:12:42.328Z,101175.09
2018-12-13T06:14:17.235Z,101169.09
2018-12-13T06:15:52.175Z,101169.84
2018-12-13T06:17:27.119Z,101172.27
2018-12-13T06:19:01.980Z,101163.41
2018-12-13T06:20:37.195Z,101171.94
2018-12-13T06:22:12.186Z,101166.97
2018-12-13T06:23:47.115Z,101164.55
2018-12-13T06:25:22.000Z,101160.89
2018-12-13T06:26:57.684Z,101158.29
2018-12-13T06:28:32.601Z,101167.03
2018-12-13T06:30:08.110Z,101161.36
2018-12-13T06:31:43.088Z,101168.21
2018-12-13T06:33:24.685Z,101168.58
2018-12-13T06:34:55.124Z,101164.11
2018-12-13T06:36:30.045Z,101168.09
2018-12-13T06:38:05.031Z,101170.12
2018-12-13T06:39:40.028Z,101165.59
2018-12-13T06:41:14.912Z,101170.45
2018-12-13T06:42:49.838Z,101166.23
2018-12-13T06:44:24.755Z,101170.48
2018-12-13T06:45:59.662Z,101172.05
2018-12-13T06:47:34.552Z,101167.03
2018-12-13T06:49:09.551Z,101166.72
2018-12-13T06:50:44.463Z,101166.88
2018-12-13T06:52:19.516Z,101164.91
2018-12-13T06:53:54.423Z,101168.18
2018-12-13T06:55:29.399Z,101164.44
2018-12-13T06:57:04.310Z,101162.30
2018-12-13T06:58:39.233Z,101161.63
2018-12-13T07:00:14.255Z,101163.27
2018-12-13T07:01:49.264Z,101162.84
2018-12-13T07:03:24.227Z,101163.09
2018-12-13T07:04:59.099Z,101158.45
2018-12-13T07:06:34.158Z,101160.67
2018-12-13T07:08:09.093Z,101161.33
2018-12-13T07:09:50.488Z,101154.19
2018-12-13T07:11:25.400Z,101156.11
2018-12-13T07:13:00.336Z,101158.69
2018-12-13T07:14:35.264Z,101156.02
2018-12-13T07:16:10.188Z,101154.76
2018-12-13T07:17:45.170Z,101161.52
2018-12-13T07:19:20.099Z,101157.83
2018-12-13T07:20:55.022Z,101153.08
2018-12-13T07:22:29.987Z,101150.54
2018-12-13T07:24:05.029Z,101158.87
2018-12-13T07:25:39.972Z,101160.52
2018-12-13T07:27:14.963Z,101158.30
2018-12-13T07:28:49.872Z,101155.45
2018-12-13T07:30:24.860Z,101159.33
2018-12-13T07:31:59.835Z,101154.81
2018-12-13T07:33:34.789Z,101147.77
2018-12-13T07:35:09.868Z,101149.50
2018-12-13T07:36:44.798Z,101148.92
2018-12-13T07:38:19.779Z,101150.56
2018-12-13T07:39:54.661Z,101144.92
2018-12-13T07:41:29.528Z,101152.06
2018-12-13T07:43:04.451Z,101151.70
2018-12-13T07:44:39.422Z,101142.83
2018-12-13T07:46:14.345Z,101145.90
2018-12-13T07:47:49.254Z,101156.36
2018-12-13T07:49:24.203Z,101151.14
2018-12-13T07:50:59.195Z,101152.23
2018-12-13T07:52:34.095Z,101155.95
2018-12-13T07:54:09.023Z,101156.92
2018-12-13T07:55:43.950Z,101155.34
2018-12-13T07:57:18.917Z,101149.36
2018-12-13T07:58:53.836Z,101148.30
2018-12-13T08:00:28.781Z,101146.22
2018-12-13T08:02:03.735Z,101147.86
2018-12-13T08:03:38.691Z,101149.23
2018-12-13T08:05:13.648Z,101149.73
2018-12-13T08:06:48.602Z,101145.00
2018-12-13T08:08:23.539Z,101147.80
2018-12-13T08:09:58.468Z,101145.19
2018-12-13T08:11:33.368Z,101147.75
2018-12-13T08:13:08.347Z,101149.41
2018-12-13T08:14:43.256Z,101152.02
2018-12-13T08:16:18.216Z,101152.95
2018-12-13T08:17:53.141Z,101150.88
2018-12-13T08:19:28.052Z,101148.94
2018-12-13T08:21:03.107Z,101148.91
2018-12-13T08:22:44.495Z,101155.75
2018-12-13T08:24:19.420Z,101144.63
2018-12-13T08:25:54.441Z,101143.77
2018-12-13T08:27:29.460Z,101147.13
2018-12-13T08:29:04.455Z,101142.58
2018-12-13T08:30:39.557Z,101144.52
2018-12-13T08:32:14.436Z,101146.30
2018-12-13T08:33:49.584Z,101147.63
2018-12-13T08:35:24.487Z,101157.38
2018-12-13T08:36:59.364Z,101159.81
2018-12-13T08:38:34.308Z,101147.95
2018-12-13T08:40:09.492Z,101153.05
2018-12-13T08:41:44.407Z,101150.31
2018-12-13T08:43:19.323Z,101154.97
2018-12-13T08:44:54.264Z,101153.05
2018-12-13T08:46:29.279Z,101154.97
2018-12-13T08:48:04.243Z,101148.41
2018-12-13T08:49:39.135Z,101148.22
2018-12-13T08:51:14.124Z,101141.55
2018-12-13T08:52:49.170Z,101139.61
2018-12-13T08:54:24.097Z,101142.61
2018-12-13T08:55:59.000Z,101137.91
2018-12-13T08:57:34.040Z,101142.71
2018-12-13T08:59:09.076Z,101137.48
2018-12-13T09:00:43.990Z,101135.59
2018-12-13T09:02:19.105Z,101136.78
2018-12-13T09:03:54.042Z,101138.22
2018-12-13T09:05:29.039Z,101138.10
2018-12-13T09:07:03.939Z,101133.98
2018-12-13T09:08:38.947Z,101135.41
2018-12-13T09:10:13.872Z,101133.17
2018-12-13T09:11:48.910Z,101130.67
2018-12-13T09:13:24.826Z,101134.41
2018-12-13T09:15:00.287Z,101131.95
2018-12-13T09:16:35.828Z,101127.16
2018-12-13T09:18:12.243Z,101124.23
2018-12-13T09:19:54.402Z,101125.21
2018-12-13T09:21:29.640Z,101134.30
2018-12-13T09:23:05.070Z,101132.22
2018-12-13T09:24:40.589Z,101133.24
2018-12-13T09:26:16.870Z,101130.73
2018-12-13T09:27:52.130Z,101122.59
2018-12-13T09:29:27.369Z,101120.78
2018-12-13T09:31:02.751Z,101122.01
2018-12-13T09:32:38.032Z,101120.25
2018-12-13T09:34:13.498Z,101113.55
2018-12-13T09:35:49.974Z,101114.91
2018-12-13T09:37:28.514Z,101110.98
2018-12-13T09:39:04.383Z,101112.58
2018-12-13T09:40:39.657Z,101111.23
2018-12-13T09:42:14.851Z,101109.80
2018-12-13T09:43:50.157Z,101114.80
2018-12-13T09:45:25.523Z,101112.53
2018-12-13T09:47:00.708Z,101110.11
2018-12-13T09:48:35.925Z,101109.69
2018-12-13T09:50:11.896Z,101110.12
2018-12-13T09:51:48.337Z,101101.45
2018-12-13T09:53:23.361Z,101102.78
2018-12-13T09:54:58.411Z,101102.90
2018-12-13T09:56:33.583Z,101101.32
2018-12-13T09:58:08.482Z,101100.30
2018-12-13T09:59:43.396Z,101092.70
2018-12-13T10:01:57.118Z,101090.73
2018-12-13T10:03:32.625Z,101089.81
2018-12-13T10:05:08.277Z,101086.08
2018-12-13T10:06:43.634Z,101088.44
2018-12-13T10:08:19.122Z,101086.25
2018-12-13T10:09:54.316Z,101079.86
2018-12-13T10:11:29.536Z,101084.13
2018-12-13T10:13:04.768Z,101076.02
2018-12-13T10:14:39.951Z,101075.84
2018-12-13T10:16:15.115Z,101079.84
2018-12-13T10:17:50.274Z,101085.95
2018-12-13T10:19:25.540Z,101087.04
2018-12-13T10:21:00.841Z,101087.50
2018-12-13T10:22:35.959Z,101083.55
2018-12-13T10:24:11.118Z,101082.03
2018-12-13T10:25:46.248Z,101089.21
2018-12-13T10:27:22.658Z,101087.89
2018-12-13T10:28:57.739Z,101086.18
2018-12-13T10:30:32.884Z,101077.05
2018-12-13T10:32:08.880Z,101078.48
2018-12-13T10:33:44.036Z,101085.13
2018-12-13T10:35:19.240Z,101082.35
2018-12-13T10:36:54.305Z,101086.04
2018-12-13T10:38:29.382Z,101085.95
2018-12-13T10:40:05.254Z,101077.25
2018-12-13T10:41:40.195Z,101079.22
2018-12-13T10:43:15.124Z,101075.38
2018-12-13T10:44:50.067Z,101072.53
2018-12-13T10:46:25.007Z,101070.02
2018-12-13T10:47:59.914Z,101073.33
2018-12-13T10:49:35.052Z,101072.36
2018-12-13T10:51:09.919Z,101070.48
2018-12-13T10:52:44.869Z,101062.62
2018-12-13T10:54:19.791Z,101065.36
2018-12-13T10:55:54.825Z,101069.08
2018-12-13T10:57:29.787Z,101068.06
2018-12-13T10:59:04.732Z,101069.62
2018-12-13T11:00:43.743Z,101074.23
2018-12-13T11:02:24.007Z,101073.41
2018-12-13T11:03:58.918Z,101072.17
2018-12-13T11:05:33.848Z,101075.91
2018-12-13T11:07:08.788Z,101072.59
2018-12-13T11:08:43.774Z,101069.12
2018-12-13T11:10:18.680Z,101065.21
2018-12-13T11:11:53.567Z,101064.52
2018-12-13T11:13:28.516Z,101062.03
2018-12-13T11:15:03.516Z,101063.63
2018-12-13T11:16:38.465Z,101058.23
2018-12-13T11:18:13.424Z,101051.03
2018-12-13T11:19:48.338Z,101053.45
2018-12-13T11:21:23.316Z,101050.73
2018-12-13T11:22:58.318Z,101052.94
2018-12-13T11:24:33.375Z,101052.02
2018-12-13T11:26:08.306Z,101050.25
2018-12-13T11:28:31.148Z,101059.05
2018-12-13T11:30:38.563Z,101047.37
2018-12-13T11:32:13.505Z,101048.08
2018-12-13T11:33:48.504Z,101049.20
2018-12-13T11:35:23.496Z,101050.94
2018-12-13T11:36:58.459Z,101049.08
2018-12-13T11:38:33.424Z,101043.52
2018-12-13T11:40:08.500Z,101046.13
2018-12-13T11:41:43.451Z,101041.28
2018-12-13T11:43:18.441Z,101040.53
2018-12-13T11:44:53.369Z,101035.95
2018-12-13T11:46:28.327Z,101037.98
2018-12-13T11:48:03.265Z,101034.84
2018-12-13T11:49:38.264Z,101030.09
2018-12-13T11:51:13.184Z,101033.72
2018-12-13T11:52:48.106Z,101034.58
2018-12-13T11:54:43.699Z,101029.36
2018-12-13T11:56:18.635Z,101032.45
2018-12-13T11:57:53.568Z,101031.76
2018-12-13T11:59:28.491Z,101032.30
2018-12-13T12:01:03.524Z,101025.06
2018-12-13T12:02:38.440Z,101027.34
2018-12-13T12:04:13.362Z,101029.11
2018-12-13T12:05:48.285Z,101025.64
2018-12-13T12:07:23.319Z,101023.16
2018-12-13T12:08:58.243Z,101030.44
2018-12-13T12:10:33.328Z,101028.83
2018-12-13T12:12:08.243Z,101028.62
2018-12-13T12:13:43.212Z,101033.27
2018-12-13T12:15:18.278Z,101026.36
2018-12-13T12:16:53.207Z,101030.48
2018-12-13T12:18:28.139Z,101025.78
2018-12-13T12:20:03.297Z,101022.36
2018-12-13T12:21:38.300Z,101019.13
2018-12-13T12:23:13.304Z,101020.89
2018-12-13T12:24:48.296Z,101011.55
2018-12-13T12:26:23.255Z,101020.02
2018-12-13T12:27:58.171Z,101014.95
2018-12-13T12:29:33.170Z,101018.61
2018-12-13T12:31:08.108Z,101013.59
2018-12-13T12:32:43.032Z,101019.72
2018-12-13T12:34:18.045Z,101015.81
2018-12-13T12:35:53.077Z,101018.41
2018-12-13T12:37:28.069Z,101017.41
2018-12-13T12:39:03.032Z,101010.41
2018-12-13T12:40:37.951Z,101006.65
2018-12-13T12:42:12.912Z,101002.63
2018-12-13T12:43:47.812Z,101007.42
2018-12-13T12:45:22.747Z,101004.83
2018-12-13T12:46:57.627Z,101001.37
2018-12-13T12:48:32.632Z,101001.99
2018-12-13T12:50:09.409Z,101000.33
2018-12-13T12:51:44.351Z,101012.73
2018-12-13T12:53:19.261Z,101000.52
2018-12-13T12:54:54.297Z,101005.12
2018-12-13T12:56:29.284Z,100999.44
2018-12-13T12:58:04.275Z,101004.00
2018-12-13T12:59:39.183Z,101000.28
2018-12-13T13:01:14.175Z,100997.16
2018-12-13T13:02:49.266Z,100994.94
2018-12-13T13:04:24.212Z,100994.89
2018-12-13T13:05:59.116Z,100994.76
2018-12-13T13:07:34.085Z,100992.56
2018-12-13T13:09:10.123Z,100995.34
2018-12-13T13:10:46.552Z,100987.14
2018-12-13T13:12:22.148Z,100993.00
2018-12-13T13:13:57.358Z,100984.73
2018-12-13T13:15:32.444Z,100987.03
2018-12-13T13:17:07.552Z,100988.48
2018-12-13T13:18:42.651Z,100983.40
2018-12-13T13:20:17.900Z,100989.33
2018-12-13T13:21:53.069Z,100986.56
2018-12-13T13:23:28.172Z,100987.58
2018-12-13T13:25:03.303Z,100976.69
2018-12-13T13:26:39.130Z,100980.20
2018-12-13T13:28:14.265Z,100983.37
2018-12-13T13:29:49.360Z,100980.87
2018-12-13T13:31:24.552Z,100984.55
2018-12-13T13:32:59.753Z,100981.37
2018-12-13T13:34:34.912Z,100987.25
2018-12-13T13:36:10.291Z,100978.84
2018-12-13T13:37:50.482Z,100985.81
2018-12-13T13:39:31.350Z,100981.50
2018-12-13T13:41:03.154Z,100978.16
2018-12-13T13:42:38.287Z,100976.62
2018-12-13T13:44:13.715Z,100978.52
2018-12-13T13:45:49.014Z,100977.33
2018-12-13T13:47:24.933Z,100986.80
2018-12-13T13:49:00.111Z,100982.34
2018-12-13T13:50:35.230Z,100984.60
2018-12-13T13:52:10.432Z,100981.28
2018-12-13T13:53:45.528Z,100980.77
2018-12-13T13:55:20.687Z,100984.16
2018-12-13T13:56:55.814Z,100988.83
2018-12-13T13:58:31.076Z,100985.18
2018-12-13T14:00:09.665Z,100987.03
2018-12-13T14:01:44.757Z,100984.98
2018-12-13T14:03:19.891Z,100985.25
2018-12-13T14:04:55.075Z,100995.08
2018-12-13T14:06:30.225Z,100994.13
2018-12-13T14:08:05.364Z,100986.95
2018-12-13T14:09:40.513Z,100989.18
2018-12-13T14:11:15.680Z,100983.92
2018-12-13T14:12:50.836Z,100987.57
2018-12-13T14:14:25.938Z,100983.17
2018-12-13T14:16:01.042Z,100984.56
2018-12-13T14:17:36.237Z,100976.42
2018-12-13T14:19:11.391Z,100988.51
2018-12-13T14:20:46.575Z,100988.02
2018-12-13T14:22:21.673Z,100988.02
2018-12-13T14:23:56.865Z,100984.19
2018-12-13T14:25:31.984Z,100989.73
2018-12-13T14:27:07.321Z,100983.19
2018-12-13T14:28:42.489Z,100971.33
2018-12-13T14:30:17.682Z,100974.56
2018-12-13T14:31:52.830Z,100970.18
2018-12-13T14:33:27.948Z,100979.69
2018-12-13T14:35:03.060Z,100979.85
2018-12-13T14:36:38.893Z,100980.16
2018-12-13T14:38:14.177Z,100982.17
2018-12-13T14:39:49.292Z,100980.47
2018-12-13T14:41:24.368Z,100985.02
2018-12-13T14:42:59.587Z,100984.69
2018-12-13T14:44:34.704Z,100985.11
2018-12-13T14:46:09.797Z,100982.41
2018-12-13T14:47:45.462Z,100983.77
2018-12-13T14:49:20.618Z,100983.81
2018-12-13T14:50:55.759Z,100989.42
2018-12-13T14:52:30.911Z,100990.84
2018-12-13T14:54:06.171Z,100986.44
2018-12-13T14:55:41.374Z,100985.01
2018-12-13T14:57:16.505Z,100984.91
2018-12-13T14:58:52.439Z,100985.20
2018-12-13T15:00:27.577Z,100982.56
2018-12-13T15:02:02.817Z,100986.07
2018-12-13T15:03:37.896Z,100985.64
2018-12-13T15:05:13.433Z,100982.83
2018-12-13T15:06:48.510Z,100981.40
2018-12-13T15:08:23.733Z,100985.44
2018-12-13T15:09:58.818Z,100976.36
2018-12-13T15:11:33.928Z,100983.26
2018-12-13T15:13:09.062Z,100983.63
2018-12-13T15:14:44.312Z,100986.50
2018-12-13T15:16:19.411Z,100980.55
2018-12-13T15:17:54.513Z,100986.39
2018-12-13T15:19:29.627Z,100983.41
2018-12-13T15:21:09.468Z,100983.90
2018-12-13T15:22:44.661Z,100981.77
2018-12-13T15:24:19.844Z,100988.63
2018-12-13T15:25:54.964Z,100983.67
2018-12-13T15:27:30.160Z,100988.09
2018-12-13T15:29:05.305Z,100992.55
2018-12-13T15:30:40.416Z,100985.09
2018-12-13T15:32:15.489Z,100985.63
2018-12-13T15:33:50.676Z,100983.44
2018-12-13T15:35:25.775Z,100987.92
2018-12-13T15:37:00.876Z,100985.48
2018-12-13T15:38:36.084Z,100982.39
2018-12-13T15:40:11.317Z,100979.10
2018-12-13T15:41:46.446Z,100983.73
2018-12-13T15:43:21.600Z,100986.97
2018-12-13T15:44:56.733Z,100983.63
2018-12-13T15:46:31.948Z,100988.52
2018-12-13T15:48:07.229Z,100987.02
2018-12-13T15:49:42.580Z,100990.25
2018-12-13T15:51:17.654Z,100982.86
2018-12-13T15:52:52.784Z,100990.45
2018-12-13T15:54:27.900Z,100987.80
2018-12-13T15:56:03.025Z,100992.63
2018-12-13T15:57:38.286Z,100981.53
2018-12-13T15:59:13.484Z,100984.12
2018-12-13T16:00:48.566Z,100984.38
2018-12-13T16:02:23.653Z,100984.06
2018-12-13T16:03:58.722Z,100975.05
2018-12-13T16:05:33.873Z,100981.63
2018-12-13T16:07:08.970Z,100977.48
2018-12-13T16:08:44.112Z,100970.98
2018-12-13T16:10:19.205Z,100978.33
2018-12-13T16:11:54.404Z,100981.41
2018-12-13T16:13:29.564Z,100976.14
2018-12-13T16:15:05.296Z,100978.75
2018-12-13T16:16:40.434Z,100976.41
2018-12-13T16:18:15.633Z,100974.23
2018-12-13T16:19:50.549Z,100977.62
2018-12-13T16:21:25.501Z,100978.22
2018-12-13T16:23:00.423Z,100975.13
2018-12-13T16:24:35.472Z,100971.47
2018-12-13T16:26:10.431Z,100979.17
2018-12-13T16:27:45.347Z,100979.72
2018-12-13T16:29:20.281Z,100982.11
2018-12-13T16:30:55.234Z,100980.02
2018-12-13T16:32:30.179Z,100977.16
2018-12-13T16:34:05.099Z,100980.30
2018-12-13T16:35:40.053Z,100970.04
2018-12-13T16:37:15.052Z,100970.94
2018-12-13T16:38:50.021Z,100974.88
2018-12-13T16:40:24.960Z,100973.75
2018-12-13T16:41:59.856Z,100972.25
2018-12-13T16:43:34.789Z,100980.50
2018-12-13T16:45:09.967Z,100971.20
2018-12-13T16:46:44.887Z,100972.21
2018-12-13T16:48:19.952Z,100974.49
2018-12-13T16:49:54.855Z,100976.20
2018-12-13T16:51:29.853Z,100974.92
2018-12-13T16:53:07.614Z,100977.41
2018-12-13T16:54:42.530Z,100975.51
2018-12-13T16:56:17.431Z,100973.22
2018-12-13T16:57:52.443Z,100981.41
2018-12-13T16:59:27.356Z,100982.31
2018-12-13T17:01:02.302Z,100983.33
2018-12-13T17:02:37.206Z,100979.55
2018-12-13T17:04:12.278Z,100980.63
2018-12-13T17:05:47.215Z,100980.47
2018-12-13T17:07:22.152Z,100984.08
2018-12-13T17:08:57.108Z,100980.72
2018-12-13T17:10:32.130Z,100979.50
2018-12-13T17:12:07.092Z,100980.72
2018-12-13T17:13:41.984Z,100988.48
2018-12-13T17:15:16.913Z,100981.84
2018-12-13T17:16:51.882Z,100983.49
2018-12-13T17:18:26.943Z,100989.98
2018-12-13T17:20:01.860Z,100986.47
2018-12-13T17:21:36.783Z,100993.64
2018-12-13T17:23:11.815Z,100984.72
2018-12-13T17:24:46.739Z,100985.20
2018-12-13T17:26:21.812Z,100984.58
2018-12-13T17:27:56.772Z,100980.95
2018-12-13T17:29:31.795Z,100986.00
2018-12-13T17:31:13.237Z,100984.20
2018-12-13T17:32:48.172Z,100989.30
2018-12-13T17:34:23.074Z,100989.72
2018-12-13T17:35:58.243Z,100991.63
2018-12-13T17:37:33.153Z,100987.48
2018-12-13T17:39:08.749Z,100984.78
2018-12-13T17:40:43.692Z,100988.41
2018-12-13T17:42:18.719Z,100985.05
2018-12-13T17:43:53.639Z,100992.12
2018-12-13T17:45:30.593Z,100988.14
2018-12-13T17:47:05.629Z,100991.74
2018-12-13T17:48:40.662Z,100986.48
2018-12-13T17:50:15.602Z,100995.46
2018-12-13T17:51:50.614Z,100990.15
2018-12-13T17:53:25.622Z,100991.58
2018-12-13T17:55:00.748Z,100990.91
2018-12-13T17:56:35.654Z,100997.23
2018-12-13T17:58:10.647Z,100999.09
2018-12-13T17:59:45.574Z,100998.19
2018-12-13T18:01:20.625Z,100996.16
2018-12-13T18:02:55.554Z,100995.27
2018-12-13T18:04:31.480Z,100998.12
2018-12-13T18:06:06.429Z,100998.55
2018-12-13T18:07:41.400Z,100995.37
2018-12-13T18:09:16.310Z,100997.86